sensor_id;sensor_type;location;lat;lon;timestamp;pressure;altitude;pressure_sealevel;temperature;humidity
7376;BME280;3728;42.266;24.944;2022-10-15T00:01:33;99870.09;;;14.32;100.00
7376;BME280;3728;42.266;24.944;2022-10-15T00:04:00;99867.41;;;14.50;100.00
7376;BME280;3728;42.266;24.944;2022-10-15T00:06:28;99865.78;;;14.36;100.00
7376;BME280;3728;42.266;24.944;2022-10-15T00:08:55;99876.16;;;14.24;100.00
7376;BME280;3728;42.266;24.944;2022-10-15T00:11:25;99866.84;;;14.27;100.00
7376;BME280;3728;42.266;24.944;2022-10-15T00:13:55;99869.97;;;14.20;100.00
7376;BME280;3728;42.266;24.944;2022-10-15T00:16:26;99871.34;;;14.26;100.00
7376;BME280;3728;42.266;24.944;2022-10-15T00:18:55;99864.50;;;14.43;100.00
7376;BME280;3728;42.266;24.944;2022-10-15T00:21:24;99868.25;;;14.33;100.00
7376;BME280;3728;42.266;24.944;2022-10-15T00:23:52;99857.38;;;14.34;100.00
7376;BME280;3728;42.266;24.944;2022-10-15T00:26:22;99862.03;;;14.37;100.00
7376;BME280;3728;42.266;24.944;2022-10-15T00:28:52;99857.88;;;14.19;100.00
7376;BME280;3728;42.266;24.944;2022-10-15T00:31:22;99855.84;;;14.25;100.00
7376;BME280;3728;42.266;24.944;2022-10-15T00:33:53;99849.38;;;14.22;100.00
7376;BME280;3728;42.266;24.944;2022-10-15T00:36:29;99852.63;;;14.19;100.00
7376;BME280;3728;42.266;24.944;2022-10-15T00:39:03;99846.53;;;14.27;100.00
7376;BME280;3728;42.266;24.944;2022-10-15T00:41:35;99852.59;;;14.28;100.00
7376;BME280;3728;42.266;24.944;2022-10-15T00:49:50;99847.84;;;14.13;100.00
7376;BME280;3728;42.266;24.944;2022-10-15T00:52:24;99861.75;;;14.13;100.00
7376;BME280;3728;42.266;24.944;2022-10-15T00:55:03;99849.22;;;14.19;100.00
7376;BME280;3728;42.266;24.944;2022-10-15T00:57:34;99848.44;;;14.18;100.00
7376;BME280;3728;42.266;24.944;2022-10-15T01:00:07;99846.09;;;14.25;100.00
7376;BME280;3728;42.266;24.944;2022-10-15T01:02:38;99845.63;;;14.32;100.00
7376;BME280;3728;42.266;24.944;2022-10-15T01:05:07;99845.44;;;14.37;100.00
7376;BME280;3728;42.266;24.944;2022-10-15T01:07:36;99845.16;;;14.38;100.00
7376;BME280;3728;42.266;24.944;2022-10-15T01:10:09;99847.00;;;14.29;100.00
7376;BME280;3728;42.266;24.944;2022-10-15T01:18:20;99848.09;;;14.37;100.00
7376;BME280;3728;42.266;24.944;2022-10-15T01:21:24;99852.88;;;14.44;100.00
7376;BME280;3728;42.266;24.944;2022-10-15T01:27:47;99839.72;;;14.26;100.00
7376;BME280;3728;42.266;24.944;2022-10-15T01:30:39;99837.38;;;14.42;100.00
7376;BME280;3728;42.266;24.944;2022-10-15T01:33:33;99831.81;;;14.35;100.00
7376;BME280;3728;42.266;24.944;2022-10-15T01:39:44;99836.00;;;14.36;100.00
7376;BME280;3728;42.266;24.944;2022-10-15T01:42:32;99840.66;;;14.30;100.00
7376;BME280;3728;42.266;24.944;2022-10-15T01:45:14;99844.88;;;14.31;100.00
7376;BME280;3728;42.266;24.944;2022-10-15T01:48:11;99843.91;;;14.27;100.00
7376;BME280;3728;42.266;24.944;2022-10-15T01:50:43;99842.88;;;14.20;100.00
7376;BME280;3728;42.266;24.944;2022-10-15T01:53:16;99853.06;;;14.21;100.00
7376;BME280;3728;42.266;24.944;2022-10-15T01:55:55;99842.22;;;14.31;100.00
7376;BME280;3728;42.266;24.944;2022-10-15T01:58:26;99844.84;;;14.23;100.00
7376;BME280;3728;42.266;24.944;2022-10-15T02:00:57;99843.31;;;14.22;100.00
7376;BME280;3728;42.266;24.944;2022-10-15T02:03:25;99840.22;;;14.20;100.00
7376;BME280;3728;42.266;24.944;2022-10-15T02:06:03;99846.09;;;14.25;100.00
7376;BME280;3728;42.266;24.944;2022-10-15T02:11:22;99838.34;;;14.20;100.00
7376;BME280;3728;42.266;24.944;2022-10-15T02:16:57;99837.88;;;14.35;100.00
7376;BME280;3728;42.266;24.944;2022-10-15T02:19:42;99830.13;;;14.30;100.00
7376;BME280;3728;42.266;24.944;2022-10-15T02:24:54;99828.88;;;14.36;100.00
7376;BME280;3728;42.266;24.944;2022-10-15T02:27:25;99838.50;;;14.32;100.00
7376;BME280;3728;42.266;24.944;2022-10-15T02:29:55;99841.75;;;14.21;100.00
7376;BME280;3728;42.266;24.944;2022-10-15T02:32:25;99837.59;;;14.11;100.00
7376;BME280;3728;42.266;24.944;2022-10-15T02:34:54;99828.31;;;14.14;100.00
7376;BME280;3728;42.266;24.944;2022-10-15T02:37:24;99836.97;;;14.14;100.00
7376;BME280;3728;42.266;24.944;2022-10-15T02:39:53;99839.44;;;14.19;100.00
7376;BME280;3728;42.266;24.944;2022-10-15T02:42:22;99838.19;;;14.25;100.00
7376;BME280;3728;42.266;24.944;2022-10-15T02:44:50;99843.25;;;14.39;100.00
7376;BME280;3728;42.266;24.944;2022-10-15T02:47:18;99843.41;;;14.43;100.00
7376;BME280;3728;42.266;24.944;2022-10-15T02:49:46;99843.25;;;14.39;100.00
7376;BME280;3728;42.266;24.944;2022-10-15T02:52:14;99840.94;;;14.37;100.00
7376;BME280;3728;42.266;24.944;2022-10-15T02:54:41;99838.81;;;14.31;100.00
7376;BME280;3728;42.266;24.944;2022-10-15T02:57:09;99844.09;;;14.22;100.00
7376;BME280;3728;42.266;24.944;2022-10-15T02:59:38;99844.41;;;14.21;100.00
7376;BME280;3728;42.266;24.944;2022-10-15T03:02:07;99835.25;;;14.27;100.00
7376;BME280;3728;42.266;24.944;2022-10-15T03:04:39;99847.50;;;14.31;100.00
7376;BME280;3728;42.266;24.944;2022-10-15T03:07:07;99846.53;;;14.27;100.00
7376;BME280;3728;42.266;24.944;2022-10-15T03:09:35;99843.31;;;14.30;100.00
7376;BME280;3728;42.266;24.944;2022-10-15T03:12:03;99841.09;;;14.41;100.00
7376;BME280;3728;42.266;24.944;2022-10-15T03:14:32;99839.47;;;14.57;100.00
7376;BME280;3728;42.266;24.944;2022-10-15T03:17:00;99841.53;;;15.43;100.00
7376;BME280;3728;42.266;24.944;2022-10-15T03:19:28;99839.78;;;14.85;100.00
7376;BME280;3728;42.266;24.944;2022-10-15T03:21:56;99849.78;;;14.71;100.00
7376;BME280;3728;42.266;24.944;2022-10-15T03:24:29;99844.97;;;14.44;100.00
7376;BME280;3728;42.266;24.944;2022-10-15T03:26:56;99846.06;;;14.43;100.00
7376;BME280;3728;42.266;24.944;2022-10-15T03:29:24;99860.63;;;14.40;100.00
7376;BME280;3728;42.266;24.944;2022-10-15T03:31:58;99858.03;;;14.31;100.00
7376;BME280;3728;42.266;24.944;2022-10-15T03:34:25;99855.69;;;14.38;100.00
7376;BME280;3728;42.266;24.944;2022-10-15T03:36:53;99855.69;;;14.38;100.00
7376;BME280;3728;42.266;24.944;2022-10-15T03:39:21;99852.28;;;14.21;100.00
7376;BME280;3728;42.266;24.944;2022-10-15T03:41:53;99860.66;;;14.23;100.00
7376;BME280;3728;42.266;24.944;2022-10-15T03:44:28;99858.97;;;14.27;100.00
7376;BME280;3728;42.266;24.944;2022-10-15T03:47:06;99857.91;;;14.11;100.00
7376;BME280;3728;42.266;24.944;2022-10-15T03:49:45;99855.25;;;14.19;100.00
7376;BME280;3728;42.266;24.944;2022-10-15T03:52:13;99856.31;;;14.35;100.00
7376;BME280;3728;42.266;24.944;2022-10-15T03:54:42;99853.69;;;14.18;100.00
7376;BME280;3728;42.266;24.944;2022-10-15T03:57:13;99862.56;;;14.05;100.00
7376;BME280;3728;42.266;24.944;2022-10-15T03:59:45;99853.56;;;14.06;100.00
7376;BME280;3728;42.266;24.944;2022-10-15T04:02:14;99852.66;;;14.02;100.00
7376;BME280;3728;42.266;24.944;2022-10-15T04:04:43;99861.19;;;13.99;100.00
7376;BME280;3728;42.266;24.944;2022-10-15T04:07:11;99855.31;;;13.94;100.00
7376;BME280;3728;42.266;24.944;2022-10-15T04:09:38;99855.78;;;13.96;100.00
7376;BME280;3728;42.266;24.944;2022-10-15T04:12:22;99850.84;;;13.86;100.00
7376;BME280;3728;42.266;24.944;2022-10-15T04:14:50;99854.41;;;13.81;100.00
7376;BME280;3728;42.266;24.944;2022-10-15T04:17:18;99852.69;;;13.85;100.00
7376;BME280;3728;42.266;24.944;2022-10-15T04:19:47;99850.84;;;13.86;100.00
7376;BME280;3728;42.266;24.944;2022-10-15T04:22:14;99848.38;;;13.72;100.00
7376;BME280;3728;42.266;24.944;2022-10-15T04:24:49;99854.41;;;13.64;100.00
7376;BME280;3728;42.266;24.944;2022-10-15T04:27:27;99852.25;;;13.75;100.00
7376;BME280;3728;42.266;24.944;2022-10-15T04:30:11;99861.53;;;13.89;100.00
7376;BME280;3728;42.266;24.944;2022-10-15T04:32:50;99855.03;;;13.87;100.00
7376;BME280;3728;42.266;24.944;2022-10-15T04:35:19;99862.66;;;14.34;100.00
7376;BME280;3728;42.266;24.944;2022-10-15T04:38:19;99852.94;;;14.09;100.00
7376;BME280;3728;42.266;24.944;2022-10-15T04:41:04;99854.38;;;13.90;100.00
7376;BME280;3728;42.266;24.944;2022-10-15T04:43:47;99853.81;;;13.67;100.00
7376;BME280;3728;42.266;24.944;2022-10-15T04:46:14;99855.38;;;13.51;100.00
7376;BME280;3728;42.266;24.944;2022-10-15T04:48:43;99865.72;;;13.47;100.00
7376;BME280;3728;42.266;24.944;2022-10-15T04:51:15;99858.03;;;13.42;100.00
7376;BME280;3728;42.266;24.944;2022-10-15T04:54:03;99866.69;;;13.51;100.00
7376;BME280;3728;42.266;24.944;2022-10-15T04:56:31;99862.34;;;13.55;100.00
7376;BME280;3728;42.266;24.944;2022-10-15T04:59:05;99865.72;;;13.64;100.00
7376;BME280;3728;42.266;24.944;2022-10-15T05:01:54;99869.72;;;13.88;100.00
7376;BME280;3728;42.266;24.944;2022-10-15T05:04:21;99866.50;;;13.82;100.00
7376;BME280;3728;42.266;24.944;2022-10-15T05:06:49;99868.50;;;13.77;100.00
7376;BME280;3728;42.266;24.944;2022-10-15T05:09:18;99869.13;;;13.73;100.00
7376;BME280;3728;42.266;24.944;2022-10-15T05:11:48;99872.22;;;13.67;100.00
7376;BME280;3728;42.266;24.944;2022-10-15T05:14:16;99868.34;;;13.73;100.00
7376;BME280;3728;42.266;24.944;2022-10-15T05:17:00;99868.34;;;13.73;100.00
7376;BME280;3728;42.266;24.944;2022-10-15T05:19:48;99868.50;;;13.77;100.00
7376;BME280;3728;42.266;24.944;2022-10-15T05:22:20;99877.78;;;13.83;100.00
7376;BME280;3728;42.266;24.944;2022-10-15T05:24:52;99886.31;;;13.88;100.00
7376;BME280;3728;42.266;24.944;2022-10-15T05:27:25;99880.72;;;13.81;100.00
7376;BME280;3728;42.266;24.944;2022-10-15T05:29:53;99888.31;;;13.83;100.00
7376;BME280;3728;42.266;24.944;2022-10-15T05:32:25;99890.81;;;13.79;100.00
7376;BME280;3728;42.266;24.944;2022-10-15T05:34:53;99882.59;;;13.81;100.00
7376;BME280;3728;42.266;24.944;2022-10-15T05:37:21;99882.13;;;13.96;100.00
7376;BME280;3728;42.266;24.944;2022-10-15T05:39:50;99887.34;;;14.13;100.00
7376;BME280;3728;42.266;24.944;2022-10-15T05:42:18;99886.91;;;14.02;100.00
7376;BME280;3728;42.266;24.944;2022-10-15T05:44:54;99892.31;;;13.97;100.00
7376;BME280;3728;42.266;24.944;2022-10-15T05:47:22;99897.75;;;13.92;100.00
7376;BME280;3728;42.266;24.944;2022-10-15T05:50:10;99903.19;;;13.96;100.00
7376;BME280;3728;42.266;24.944;2022-10-15T05:52:44;99896.50;;;14.15;100.00
7376;BME280;3728;42.266;24.944;2022-10-15T05:55:32;99902.22;;;14.09;100.00
7376;BME280;3728;42.266;24.944;2022-10-15T05:58:01;99905.63;;;14.09;100.00
7376;BME280;3728;42.266;24.944;2022-10-15T06:00:31;99909.03;;;14.10;100.00
7376;BME280;3728;42.266;24.944;2022-10-15T06:03:01;99911.66;;;14.18;100.00
7376;BME280;3728;42.266;24.944;2022-10-15T06:05:28;99911.50;;;14.15;100.00
7376;BME280;3728;42.266;24.944;2022-10-15T06:07:56;99913.19;;;14.28;100.00
7376;BME280;3728;42.266;24.944;2022-10-15T06:10:23;99913.50;;;14.26;100.00
7376;BME280;3728;42.266;24.944;2022-10-15T06:12:51;99919.09;;;14.33;100.00
7376;BME280;3728;42.266;24.944;2022-10-15T06:15:19;99919.22;;;14.37;100.00
7376;BME280;3728;42.266;24.944;2022-10-15T06:17:46;99916.38;;;14.59;100.00
7376;BME280;3728;42.266;24.944;2022-10-15T06:20:17;99919.06;;;14.51;100.00
7376;BME280;3728;42.266;24.944;2022-10-15T06:22:45;99918.84;;;14.64;100.00
7376;BME280;3728;42.266;24.944;2022-10-15T06:25:12;99912.63;;;14.69;100.00
7376;BME280;3728;42.266;24.944;2022-10-15T06:27:40;99928.81;;;14.88;100.00
7376;BME280;3728;42.266;24.944;2022-10-15T06:30:09;99920.31;;;14.82;100.00
7376;BME280;3728;42.266;24.944;2022-10-15T06:32:36;99925.63;;;14.74;100.00
7376;BME280;3728;42.266;24.944;2022-10-15T06:35:04;99924.78;;;14.82;100.00
7376;BME280;3728;42.266;24.944;2022-10-15T06:37:33;99933.19;;;15.13;100.00
7376;BME280;3728;42.266;24.944;2022-10-15T06:40:01;99924.97;;;15.35;100.00
7376;BME280;3728;42.266;24.944;2022-10-15T06:42:28;99940.97;;;15.59;100.00
7376;BME280;3728;42.266;24.944;2022-10-15T06:44:56;99936.19;;;15.73;100.00
7376;BME280;3728;42.266;24.944;2022-10-15T06:47:23;99934.59;;;15.81;100.00
7376;BME280;3728;42.266;24.944;2022-10-15T06:49:51;99938.84;;;15.94;100.00
7376;BME280;3728;42.266;24.944;2022-10-15T06:52:19;99936.31;;;15.98;100.00
7376;BME280;3728;42.266;24.944;2022-10-15T06:54:47;99940.59;;;16.02;100.00
7376;BME280;3728;42.266;24.944;2022-10-15T06:57:20;99938.47;;;16.16;100.00
7376;BME280;3728;42.266;24.944;2022-10-15T06:59:47;99948.53;;;16.35;100.00
7376;BME280;3728;42.266;24.944;2022-10-15T07:02:15;99941.22;;;16.53;100.00
7376;BME280;3728;42.266;24.944;2022-10-15T07:04:45;99945.66;;;16.97;100.00
7376;BME280;3728;42.266;24.944;2022-10-15T07:07:16;99949.97;;;17.01;100.00
7376;BME280;3728;42.266;24.944;2022-10-15T07:09:44;99950.16;;;17.21;100.00
7376;BME280;3728;42.266;24.944;2022-10-15T07:12:13;99951.94;;;17.04;99.93
7376;BME280;3728;42.266;24.944;2022-10-15T07:14:42;99940.81;;;16.99;100.00
7376;BME280;3728;42.266;24.944;2022-10-15T07:17:10;99952.09;;;17.60;100.00
7376;BME280;3728;42.266;24.944;2022-10-15T07:19:38;99951.59;;;17.54;96.27
7376;BME280;3728;42.266;24.944;2022-10-15T07:22:05;99950.44;;;17.43;95.12
7376;BME280;3728;42.266;24.944;2022-10-15T07:24:33;99948.16;;;17.30;94.15
7376;BME280;3728;42.266;24.944;2022-10-15T07:27:01;99945.53;;;17.18;96.03
7376;BME280;3728;42.266;24.944;2022-10-15T07:29:43;99955.66;;;17.40;92.86
7376;BME280;3728;42.266;24.944;2022-10-15T07:32:11;99952.81;;;17.21;93.03
7376;BME280;3728;42.266;24.944;2022-10-15T07:34:39;99956.25;;;17.21;92.40
7376;BME280;3728;42.266;24.944;2022-10-15T07:37:06;99956.34;;;17.13;93.50
7376;BME280;3728;42.266;24.944;2022-10-15T07:39:34;99955.00;;;17.43;92.57
7376;BME280;3728;42.266;24.944;2022-10-15T07:42:07;99953.66;;;17.49;91.84
7376;BME280;3728;42.266;24.944;2022-10-15T07:44:34;99952.16;;;17.36;92.13
7376;BME280;3728;42.266;24.944;2022-10-15T07:47:05;99948.94;;;17.54;91.19
7376;BME280;3728;42.266;24.944;2022-10-15T07:49:36;99949.13;;;17.61;88.51
7376;BME280;3728;42.266;24.944;2022-10-15T07:52:04;99937.63;;;17.69;86.51
7376;BME280;3728;42.266;24.944;2022-10-15T07:54:35;99946.22;;;18.06;83.55
7376;BME280;3728;42.266;24.944;2022-10-15T07:57:03;99937.00;;;17.88;83.49
7376;BME280;3728;42.266;24.944;2022-10-15T07:59:33;99936.22;;;17.88;82.78
7376;BME280;3728;42.266;24.944;2022-10-15T08:02:01;99941.75;;;18.10;81.03
7376;BME280;3728;42.266;24.944;2022-10-15T08:04:28;99939.25;;;18.45;77.08
7376;BME280;3728;42.266;24.944;2022-10-15T08:06:56;99942.09;;;18.52;79.28
7376;BME280;3728;42.266;24.944;2022-10-15T08:09:23;99946.06;;;18.58;76.94
7376;BME280;3728;42.266;24.944;2022-10-15T08:11:51;99948.09;;;18.80;76.56
7376;BME280;3728;42.266;24.944;2022-10-15T08:14:18;99949.97;;;18.80;74.90
7376;BME280;3728;42.266;24.944;2022-10-15T08:16:46;99953.81;;;18.82;75.25
7376;BME280;3728;42.266;24.944;2022-10-15T08:19:14;99950.13;;;18.87;73.46
7376;BME280;3728;42.266;24.944;2022-10-15T08:21:44;99946.91;;;18.93;75.23
7376;BME280;3728;42.266;24.944;2022-10-15T08:24:13;99951.41;;;19.08;76.24
7376;BME280;3728;42.266;24.944;2022-10-15T08:26:40;99956.97;;;19.03;76.66
7376;BME280;3728;42.266;24.944;2022-10-15T08:29:09;99954.78;;;19.40;73.40
7376;BME280;3728;42.266;24.944;2022-10-15T08:31:40;99959.84;;;19.64;70.14
7376;BME280;3728;42.266;24.944;2022-10-15T08:34:08;99963.09;;;19.73;68.73
7376;BME280;3728;42.266;24.944;2022-10-15T08:36:36;99961.25;;;19.58;67.77
7376;BME280;3728;42.266;24.944;2022-10-15T08:39:03;99948.66;;;19.55;67.75
7376;BME280;3728;42.266;24.944;2022-10-15T08:41:44;99955.50;;;19.56;67.44
7376;BME280;3728;42.266;24.944;2022-10-15T08:49:50;99957.19;;;20.03;65.56
7376;BME280;3728;42.266;24.944;2022-10-15T08:52:43;99962.22;;;20.50;63.07
7376;BME280;3728;42.266;24.944;2022-10-15T08:55:16;99965.84;;;20.83;62.77
7376;BME280;3728;42.266;24.944;2022-10-15T08:58:00;99964.56;;;21.00;59.33
7376;BME280;3728;42.266;24.944;2022-10-15T09:00:34;99970.34;;;21.28;57.53
7376;BME280;3728;42.266;24.944;2022-10-15T09:06:05;99979.50;;;21.31;58.33
7376;BME280;3728;42.266;24.944;2022-10-15T09:14:53;99978.94;;;21.18;58.74
7376;BME280;3728;42.266;24.944;2022-10-15T09:17:29;99972.56;;;21.00;55.98
7376;BME280;3728;42.266;24.944;2022-10-15T09:20:03;99983.25;;;20.77;58.12
7376;BME280;3728;42.266;24.944;2022-10-15T09:22:33;99978.97;;;20.50;58.58
7376;BME280;3728;42.266;24.944;2022-10-15T09:25:13;99985.75;;;20.93;56.51
7376;BME280;3728;42.266;24.944;2022-10-15T09:27:47;99985.09;;;20.99;58.19
7376;BME280;3728;42.266;24.944;2022-10-15T09:30:47;99979.63;;;21.41;56.29
7376;BME280;3728;42.266;24.944;2022-10-15T09:34:00;99988.28;;;21.61;54.95
7376;BME280;3728;42.266;24.944;2022-10-15T09:36:40;99985.59;;;21.87;53.25
7376;BME280;3728;42.266;24.944;2022-10-15T09:45:02;99978.31;;;21.54;51.85
7376;BME280;3728;42.266;24.944;2022-10-15T09:47:36;99966.69;;;21.99;51.01
7376;BME280;3728;42.266;24.944;2022-10-15T09:50:08;99971.13;;;22.25;49.80
7376;BME280;3728;42.266;24.944;2022-10-15T09:56:00;99969.19;;;22.22;49.70
7376;BME280;3728;42.266;24.944;2022-10-15T09:58:47;99973.78;;;22.62;48.44
7376;BME280;3728;42.266;24.944;2022-10-15T10:01:20;99969.09;;;22.95;48.07
7376;BME280;3728;42.266;24.944;2022-10-15T10:09:47;99971.91;;;23.17;45.46
7376;BME280;3728;42.266;24.944;2022-10-15T10:12:21;99960.13;;;23.25;45.93
7376;BME280;3728;42.266;24.944;2022-10-15T10:15:32;99959.66;;;23.12;46.49
7376;BME280;3728;42.266;24.944;2022-10-15T10:18:05;99954.03;;;23.24;46.08
7376;BME280;3728;42.266;24.944;2022-10-15T10:20:51;99955.72;;;23.50;44.96
7376;BME280;3728;42.266;24.944;2022-10-15T10:23:23;99945.56;;;23.15;46.19
7376;BME280;3728;42.266;24.944;2022-10-15T10:25:57;99939.94;;;22.73;46.24
7376;BME280;3728;42.266;24.944;2022-10-15T10:28:34;99936.06;;;22.63;46.90
7376;BME280;3728;42.266;24.944;2022-10-15T10:31:10;99944.75;;;23.07;48.44
7376;BME280;3728;42.266;24.944;2022-10-15T10:36:30;99936.34;;;23.05;43.98
7376;BME280;3728;42.266;24.944;2022-10-15T10:39:09;99938.78;;;22.74;44.75
7376;BME280;3728;42.266;24.944;2022-10-15T10:42:22;99926.47;;;23.17;43.81
7376;BME280;3728;42.266;24.944;2022-10-15T10:44:52;99927.47;;;23.52;42.58
7376;BME280;3728;42.266;24.944;2022-10-15T10:47:23;99919.38;;;23.38;43.48
7376;BME280;3728;42.266;24.944;2022-10-15T10:49:57;99927.03;;;23.43;42.12
7376;BME280;3728;42.266;24.944;2022-10-15T10:52:30;99918.06;;;23.14;42.99
7376;BME280;3728;42.266;24.944;2022-10-15T10:55:18;99910.53;;;22.66;44.24
7376;BME280;3728;42.266;24.944;2022-10-15T10:57:57;99908.75;;;22.87;45.13
7376;BME280;3728;42.266;24.944;2022-10-15T11:14:59;99905.09;;;24.06;42.45
7376;BME280;3728;42.266;24.944;2022-10-15T11:29:59;99900.47;;;25.02;40.41
7376;BME280;3728;42.266;24.944;2022-10-15T11:33:06;99898.44;;;25.38;40.28
7376;BME280;3728;42.266;24.944;2022-10-15T11:42:18;99889.28;;;26.52;36.97
7376;BME280;3728;42.266;24.944;2022-10-15T11:51:02;99886.44;;;27.74;35.09
7376;BME280;3728;42.266;24.944;2022-10-15T11:56:38;99886.38;;;26.36;36.44
7376;BME280;3728;42.266;24.944;2022-10-15T11:59:22;99878.66;;;25.90;37.47
7376;BME280;3728;42.266;24.944;2022-10-15T12:02:03;99885.06;;;25.31;37.97
7376;BME280;3728;42.266;24.944;2022-10-15T12:04:39;99872.56;;;24.71;38.39
7376;BME280;3728;42.266;24.944;2022-10-15T12:07:15;99878.66;;;24.96;39.21
7376;BME280;3728;42.266;24.944;2022-10-15T12:09:59;99880.38;;;25.56;38.31
7376;BME280;3728;42.266;24.944;2022-10-15T12:12:45;99880.66;;;25.75;38.37
7376;BME280;3728;42.266;24.944;2022-10-15T12:15:26;99878.72;;;26.31;36.94
7376;BME280;3728;42.266;24.944;2022-10-15T12:20:42;99884.31;;;26.54;36.46
7376;BME280;3728;42.266;24.944;2022-10-15T12:26:27;99893.88;;;26.55;36.75
7376;BME280;3728;42.266;24.944;2022-10-15T12:29:01;99882.84;;;25.91;36.99
7376;BME280;3728;42.266;24.944;2022-10-15T12:34:49;99883.28;;;24.78;38.88
7376;BME280;3728;42.266;24.944;2022-10-15T12:37:23;99892.47;;;24.31;39.63
7376;BME280;3728;42.266;24.944;2022-10-15T12:39:59;99883.28;;;24.50;40.05
7376;BME280;3728;42.266;24.944;2022-10-15T12:42:33;99883.31;;;24.36;39.64
7376;BME280;3728;42.266;24.944;2022-10-15T12:45:05;99877.56;;;24.16;39.77
7376;BME280;3728;42.266;24.944;2022-10-15T12:50:45;99888.19;;;23.85;40.40
7376;BME280;3728;42.266;24.944;2022-10-15T12:58:53;99878.25;;;22.92;42.58
7376;BME280;3728;42.266;24.944;2022-10-15T13:11:50;99890.19;;;23.12;42.28
7376;BME280;3728;42.266;24.944;2022-10-15T13:14:37;99878.63;;;22.87;43.00
7376;BME280;3728;42.266;24.944;2022-10-15T13:17:19;99892.31;;;23.54;41.93
7376;BME280;3728;42.266;24.944;2022-10-15T13:19:57;99890.53;;;24.71;39.30
7376;BME280;3728;42.266;24.944;2022-10-15T13:22:28;99892.47;;;25.81;37.47
7376;BME280;3728;42.266;24.944;2022-10-15T13:25:00;99891.03;;;26.76;35.40
7376;BME280;3728;42.266;24.944;2022-10-15T13:27:31;99893.41;;;27.08;34.13
7376;BME280;3728;42.266;24.944;2022-10-15T13:30:13;99885.84;;;26.96;35.20
7376;BME280;3728;42.266;24.944;2022-10-15T13:32:45;99894.09;;;27.16;34.67
7376;BME280;3728;42.266;24.944;2022-10-15T13:35:27;99899.59;;;27.65;34.17
7376;BME280;3728;42.266;24.944;2022-10-15T13:37:57;99884.50;;;28.02;34.24
7376;BME280;3728;42.266;24.944;2022-10-15T13:40:27;99894.16;;;28.49;31.85
7376;BME280;3728;42.266;24.944;2022-10-15T13:43:03;99889.88;;;28.28;32.87
7376;BME280;3728;42.266;24.944;2022-10-15T13:45:32;99890.47;;;28.63;31.69
7376;BME280;3728;42.266;24.944;2022-10-15T13:48:01;99886.41;;;28.05;32.34
7376;BME280;3728;42.266;24.944;2022-10-15T13:56:17;99880.19;;;25.01;36.99
7376;BME280;3728;42.266;24.944;2022-10-15T13:58:53;99886.75;;;24.47;38.58
7376;BME280;3728;42.266;24.944;2022-10-15T14:01:23;99883.66;;;24.17;39.00
7376;BME280;3728;42.266;24.944;2022-10-15T14:03:57;99878.59;;;23.66;40.01
7376;BME280;3728;42.266;24.944;2022-10-15T14:06:33;99876.66;;;23.56;41.62
7376;BME280;3728;42.266;24.944;2022-10-15T14:09:26;99880.78;;;23.36;40.61
7376;BME280;3728;42.266;24.944;2022-10-15T14:12:05;99884.06;;;23.08;41.54
7376;BME280;3728;42.266;24.944;2022-10-15T14:14:38;99882.97;;;23.16;41.15
7376;BME280;3728;42.266;24.944;2022-10-15T14:17:20;99890.94;;;23.05;41.13
7376;BME280;3728;42.266;24.944;2022-10-15T14:19:52;99888.09;;;22.81;41.69
7376;BME280;3728;42.266;24.944;2022-10-15T14:22:47;99883.44;;;22.67;41.95
7376;BME280;3728;42.266;24.944;2022-10-15T14:25:20;99883.22;;;22.42;42.62
7376;BME280;3728;42.266;24.944;2022-10-15T14:27:49;99886.88;;;22.24;43.09
7376;BME280;3728;42.266;24.944;2022-10-15T14:30:37;99876.13;;;22.17;42.85
7376;BME280;3728;42.266;24.944;2022-10-15T14:33:32;99882.31;;;22.24;43.14
7376;BME280;3728;42.266;24.944;2022-10-15T14:36:11;99879.81;;;22.02;43.72
7376;BME280;3728;42.266;24.944;2022-10-15T14:38:48;99878.28;;;22.01;44.06
7376;BME280;3728;42.266;24.944;2022-10-15T14:41:25;99879.44;;;22.00;44.12
7376;BME280;3728;42.266;24.944;2022-10-15T14:44:04;99877.69;;;22.21;43.58
7376;BME280;3728;42.266;24.944;2022-10-15T14:46:46;99887.78;;;21.98;44.60
7376;BME280;3728;42.266;24.944;2022-10-15T14:49:29;99891.16;;;21.95;44.81
7376;BME280;3728;42.266;24.944;2022-10-15T14:52:12;99883.53;;;21.60;46.15
7376;BME280;3728;42.266;24.944;2022-10-15T14:55:15;99883.09;;;21.22;47.61
7376;BME280;3728;42.266;24.944;2022-10-15T14:58:01;99884.44;;;21.08;48.01
7376;BME280;3728;42.266;24.944;2022-10-15T15:00:45;99877.97;;;21.09;47.68
7376;BME280;3728;42.266;24.944;2022-10-15T15:03:19;99873.56;;;20.94;47.36
7376;BME280;3728;42.266;24.944;2022-10-15T15:05:55;99882.69;;;20.93;47.20
7376;BME280;3728;42.266;24.944;2022-10-15T15:08:24;99883.19;;;20.76;47.53
7376;BME280;3728;42.266;24.944;2022-10-15T15:11:21;99879.13;;;20.60;48.38
7376;BME280;3728;42.266;24.944;2022-10-15T15:13:50;99893.41;;;20.48;48.55
7376;BME280;3728;42.266;24.944;2022-10-15T15:16:21;99893.00;;;20.46;48.61
7376;BME280;3728;42.266;24.944;2022-10-15T15:18:48;99885.97;;;20.34;48.51
7376;BME280;3728;42.266;24.944;2022-10-15T15:21:19;99892.47;;;20.37;46.93
7376;BME280;3728;42.266;24.944;2022-10-15T15:23:49;99903.47;;;20.16;47.84
7376;BME280;3728;42.266;24.944;2022-10-15T15:26:18;99896.50;;;20.08;47.35
7376;BME280;3728;42.266;24.944;2022-10-15T15:28:45;99903.78;;;20.11;46.90
7376;BME280;3728;42.266;24.944;2022-10-15T15:31:16;99903.94;;;19.99;47.29
7376;BME280;3728;42.266;24.944;2022-10-15T15:33:44;99906.88;;;19.94;47.13
7376;BME280;3728;42.266;24.944;2022-10-15T15:36:14;99905.88;;;20.02;47.00
7376;BME280;3728;42.266;24.944;2022-10-15T15:38:49;99906.41;;;19.89;46.81
7376;BME280;3728;42.266;24.944;2022-10-15T15:41:20;99903.13;;;19.76;47.14
7376;BME280;3728;42.266;24.944;2022-10-15T15:43:49;99906.13;;;19.55;47.67
7376;BME280;3728;42.266;24.944;2022-10-15T15:46:18;99915.97;;;19.55;47.73
7376;BME280;3728;42.266;24.944;2022-10-15T15:48:46;99916.56;;;19.45;47.53
7376;BME280;3728;42.266;24.944;2022-10-15T15:51:22;99924.53;;;19.29;47.67
7376;BME280;3728;42.266;24.944;2022-10-15T15:53:52;99919.13;;;19.06;48.04
7376;BME280;3728;42.266;24.944;2022-10-15T15:56:20;99936.94;;;19.06;48.69